sensor_id;sensor_type;location;lat;lon;timestamp;P1;durP1;ratioP1;P2;durP2;ratioP2
2646;SDS011;1333;50.958;6.770;2024-03-22T00:01:45;24.67;;;11.47;;
2646;SDS011;1333;50.958;6.770;2024-03-22T00:04:12;22.90;;;9.50;;
2646;SDS011;1333;50.958;6.770;2024-03-22T00:06:38;13.70;;;8.60;;
2646;SDS011;1333;50.958;6.770;2024-03-22T00:09:04;17.10;;;7.90;;
2646;SDS011;1333;50.958;6.770;2024-03-22T00:11:30;14.53;;;7.80;;
2646;SDS011;1333;50.958;6.770;2024-03-22T00:13:56;18.33;;;8.83;;
2646;SDS011;1333;50.958;6.770;2024-03-22T00:16:21;15.50;;;8.53;;
2646;SDS011;1333;50.958;6.770;2024-03-22T00:18:47;12.47;;;7.23;;
2646;SDS011;1333;50.958;6.770;2024-03-22T00:21:12;16.20;;;9.70;;
2646;SDS011;1333;50.958;6.770;2024-03-22T00:23:38;17.60;;;7.90;;
2646;SDS011;1333;50.958;6.770;2024-03-22T00:26:03;13.80;;;7.33;;
2646;SDS011;1333;50.958;6.770;2024-03-22T00:28:29;17.23;;;8.30;;
2646;SDS011;1333;50.958;6.770;2024-03-22T00:30:54;18.27;;;8.53;;
2646;SDS011;1333;50.958;6.770;2024-03-22T00:33:20;14.80;;;8.97;;
2646;SDS011;1333;50.958;6.770;2024-03-22T00:35:45;11.73;;;6.53;;
2646;SDS011;1333;50.958;6.770;2024-03-22T00:38:12;15.97;;;8.50;;
2646;SDS011;1333;50.958;6.770;2024-03-22T00:40:37;12.77;;;6.43;;
2646;SDS011;1333;50.958;6.770;2024-03-22T00:43:03;16.83;;;7.73;;
2646;SDS011;1333;50.958;6.770;2024-03-22T00:45:28;18.20;;;7.70;;
2646;SDS011;1333;50.958;6.770;2024-03-22T00:47:54;16.23;;;7.90;;
2646;SDS011;1333;50.958;6.770;2024-03-22T00:50:19;11.90;;;6.80;;
2646;SDS011;1333;50.958;6.770;2024-03-22T00:52:45;13.67;;;8.03;;
2646;SDS011;1333;50.958;6.770;2024-03-22T00:55:10;14.20;;;7.60;;
2646;SDS011;1333;50.958;6.770;2024-03-22T00:57:36;13.07;;;8.10;;
2646;SDS011;1333;50.958;6.770;2024-03-22T01:00:02;13.33;;;6.37;;
2646;SDS011;1333;50.958;6.770;2024-03-22T01:02:28;11.80;;;7.10;;
2646;SDS011;1333;50.958;6.770;2024-03-22T01:04:53;12.23;;;7.83;;
2646;SDS011;1333;50.958;6.770;2024-03-22T01:07:19;15.07;;;6.90;;
2646;SDS011;1333;50.958;6.770;2024-03-22T01:09:44;13.60;;;6.60;;
2646;SDS011;1333;50.958;6.770;2024-03-22T01:12:10;10.83;;;6.80;;
2646;SDS011;1333;50.958;6.770;2024-03-22T01:14:36;14.87;;;6.77;;
2646;SDS011;1333;50.958;6.770;2024-03-22T01:17:01;13.47;;;7.10;;
2646;SDS011;1333;50.958;6.770;2024-03-22T01:19:27;13.10;;;6.40;;
2646;SDS011;1333;50.958;6.770;2024-03-22T01:21:52;16.60;;;6.47;;
2646;SDS011;1333;50.958;6.770;2024-03-22T01:24:18;10.30;;;5.43;;
2646;SDS011;1333;50.958;6.770;2024-03-22T01:26:43;9.57;;;5.40;;
2646;SDS011;1333;50.958;6.770;2024-03-22T01:29:09;12.80;;;6.30;;
2646;SDS011;1333;50.958;6.770;2024-03-22T01:31:34;7.73;;;5.13;;
2646;SDS011;1333;50.958;6.770;2024-03-22T01:34:00;14.70;;;6.90;;
2646;SDS011;1333;50.958;6.770;2024-03-22T01:36:26;10.67;;;5.47;;
2646;SDS011;1333;50.958;6.770;2024-03-22T01:38:51;8.30;;;6.27;;
2646;SDS011;1333;50.958;6.770;2024-03-22T01:41:16;7.73;;;5.47;;
2646;SDS011;1333;50.958;6.770;2024-03-22T01:43:43;10.60;;;6.93;;
2646;SDS011;1333;50.958;6.770;2024-03-22T01:46:08;10.40;;;6.10;;
2646;SDS011;1333;50.958;6.770;2024-03-22T01:48:34;9.60;;;6.00;;
2646;SDS011;1333;50.958;6.770;2024-03-22T01:51:00;9.23;;;5.60;;
2646;SDS011;1333;50.958;6.770;2024-03-22T01:53:26;9.10;;;5.50;;
2646;SDS011;1333;50.958;6.770;2024-03-22T01:55:52;9.97;;;6.43;;
2646;SDS011;1333;50.958;6.770;2024-03-22T01:58:18;8.80;;;5.17;;
2646;SDS011;1333;50.958;6.770;2024-03-22T02:00:43;14.30;;;7.43;;
2646;SDS011;1333;50.958;6.770;2024-03-22T02:03:09;12.90;;;5.53;;
2646;SDS011;1333;50.958;6.770;2024-03-22T02:05:35;9.17;;;5.57;;
2646;SDS011;1333;50.958;6.770;2024-03-22T02:08:00;7.40;;;5.27;;
2646;SDS011;1333;50.958;6.770;2024-03-22T02:10:26;11.13;;;6.00;;
2646;SDS011;1333;50.958;6.770;2024-03-22T02:12:51;9.77;;;5.90;;
2646;SDS011;1333;50.958;6.770;2024-03-22T02:15:17;6.67;;;5.33;;
2646;SDS011;1333;50.958;6.770;2024-03-22T02:17:42;22.80;;;6.23;;
2646;SDS011;1333;50.958;6.770;2024-03-22T02:20:08;12.13;;;5.20;;
2646;SDS011;1333;50.958;6.770;2024-03-22T02:22:35;7.40;;;5.90;;
2646;SDS011;1333;50.958;6.770;2024-03-22T02:25:00;9.37;;;5.03;;
2646;SDS011;1333;50.958;6.770;2024-03-22T02:27:26;9.50;;;6.00;;
2646;SDS011;1333;50.958;6.770;2024-03-22T02:29:51;10.53;;;6.47;;
2646;SDS011;1333;50.958;6.770;2024-03-22T02:32:17;8.83;;;5.43;;
2646;SDS011;1333;50.958;6.770;2024-03-22T02:34:42;11.40;;;5.80;;
2646;SDS011;1333;50.958;6.770;2024-03-22T02:37:08;14.93;;;6.17;;
2646;SDS011;1333;50.958;6.770;2024-03-22T02:39:33;7.17;;;5.37;;
2646;SDS011;1333;50.958;6.770;2024-03-22T02:41:59;7.87;;;4.97;;
2646;SDS011;1333;50.958;6.770;2024-03-22T02:44:24;7.50;;;4.03;;
2646;SDS011;1333;50.958;6.770;2024-03-22T02:46:50;9.60;;;6.20;;
2646;SDS011;1333;50.958;6.770;2024-03-22T02:49:15;12.57;;;6.17;;
2646;SDS011;1333;50.958;6.770;2024-03-22T02:51:41;7.20;;;5.13;;
2646;SDS011;1333;50.958;6.770;2024-03-22T02:54:07;9.13;;;6.27;;
2646;SDS011;1333;50.958;6.770;2024-03-22T02:56:32;8.37;;;4.97;;
2646;SDS011;1333;50.958;6.770;2024-03-22T02:58:58;10.57;;;5.70;;
2646;SDS011;1333;50.958;6.770;2024-03-22T03:01:23;6.67;;;4.77;;
2646;SDS011;1333;50.958;6.770;2024-03-22T03:03:49;7.70;;;5.63;;
2646;SDS011;1333;50.958;6.770;2024-03-22T03:06:14;7.53;;;4.60;;
2646;SDS011;1333;50.958;6.770;2024-03-22T03:08:41;11.73;;;6.53;;
2646;SDS011;1333;50.958;6.770;2024-03-22T03:11:07;7.00;;;4.70;;
2646;SDS011;1333;50.958;6.770;2024-03-22T03:13:32;8.10;;;5.37;;
2646;SDS011;1333;50.958;6.770;2024-03-22T03:15:58;11.90;;;5.67;;
2646;SDS011;1333;50.958;6.770;2024-03-22T03:18:23;9.10;;;4.33;;
2646;SDS011;1333;50.958;6.770;2024-03-22T03:20:49;8.17;;;5.20;;
2646;SDS011;1333;50.958;6.770;2024-03-22T03:23:14;7.63;;;4.90;;
2646;SDS011;1333;50.958;6.770;2024-03-22T03:25:40;10.83;;;5.50;;
2646;SDS011;1333;50.958;6.770;2024-03-22T03:28:05;8.47;;;5.33;;
2646;SDS011;1333;50.958;6.770;2024-03-22T03:30:32;9.27;;;6.70;;
2646;SDS011;1333;50.958;6.770;2024-03-22T03:32:58;11.50;;;5.37;;
2646;SDS011;1333;50.958;6.770;2024-03-22T03:35:23;10.97;;;6.53;;
2646;SDS011;1333;50.958;6.770;2024-03-22T03:37:50;9.87;;;5.70;;
2646;SDS011;1333;50.958;6.770;2024-03-22T03:40:16;13.83;;;5.40;;
2646;SDS011;1333;50.958;6.770;2024-03-22T03:42:41;9.03;;;5.90;;
2646;SDS011;1333;50.958;6.770;2024-03-22T03:45:07;10.40;;;5.60;;
2646;SDS011;1333;50.958;6.770;2024-03-22T03:47:32;8.87;;;5.33;;
2646;SDS011;1333;50.958;6.770;2024-03-22T03:49:58;8.77;;;6.00;;
2646;SDS011;1333;50.958;6.770;2024-03-22T03:52:23;12.83;;;5.50;;
2646;SDS011;1333;50.958;6.770;2024-03-22T03:54:49;8.10;;;5.90;;
2646;SDS011;1333;50.958;6.770;2024-03-22T03:57:14;10.93;;;5.90;;
2646;SDS011;1333;50.958;6.770;2024-03-22T03:59:40;11.93;;;6.07;;
2646;SDS011;1333;50.958;6.770;2024-03-22T04:02:05;12.83;;;6.90;;
2646;SDS011;1333;50.958;6.770;2024-03-22T04:04:31;9.17;;;6.33;;
2646;SDS011;1333;50.958;6.770;2024-03-22T04:06:57;11.03;;;6.60;;
2646;SDS011;1333;50.958;6.770;2024-03-22T04:09:22;8.70;;;5.33;;
2646;SDS011;1333;50.958;6.770;2024-03-22T04:11:48;7.80;;;5.07;;
2646;SDS011;1333;50.958;6.770;2024-03-22T04:14:14;11.00;;;6.93;;
2646;SDS011;1333;50.958;6.770;2024-03-22T04:16:39;8.60;;;5.33;;
2646;SDS011;1333;50.958;6.770;2024-03-22T04:19:05;8.67;;;5.60;;
2646;SDS011;1333;50.958;6.770;2024-03-22T04:21:30;9.40;;;6.00;;
2646;SDS011;1333;50.958;6.770;2024-03-22T04:23:56;11.13;;;6.40;;
2646;SDS011;1333;50.958;6.770;2024-03-22T04:26:21;11.83;;;6.40;;
2646;SDS011;1333;50.958;6.770;2024-03-22T04:28:48;7.90;;;5.80;;
2646;SDS011;1333;50.958;6.770;2024-03-22T04:31:13;12.67;;;6.60;;
2646;SDS011;1333;50.958;6.770;2024-03-22T04:33:39;8.80;;;5.40;;
2646;SDS011;1333;50.958;6.770;2024-03-22T04:36:05;10.40;;;6.30;;
2646;SDS011;1333;50.958;6.770;2024-03-22T04:38:31;10.50;;;5.47;;
2646;SDS011;1333;50.958;6.770;2024-03-22T04:40:57;9.90;;;5.87;;
2646;SDS011;1333;50.958;6.770;2024-03-22T04:43:23;11.03;;;5.80;;
2646;SDS011;1333;50.958;6.770;2024-03-22T04:45:49;11.87;;;6.40;;
2646;SDS011;1333;50.958;6.770;2024-03-22T04:48:19;8.57;;;5.23;;
2646;SDS011;1333;50.958;6.770;2024-03-22T04:50:46;9.50;;;6.40;;
2646;SDS011;1333;50.958;6.770;2024-03-22T04:53:13;8.90;;;5.90;;
2646;SDS011;1333;50.958;6.770;2024-03-22T04:55:38;8.93;;;6.23;;
2646;SDS011;1333;50.958;6.770;2024-03-22T04:58:09;9.30;;;6.33;;
2646;SDS011;1333;50.958;6.770;2024-03-22T05:00:37;11.30;;;5.83;;
2646;SDS011;1333;50.958;6.770;2024-03-22T05:03:02;9.47;;;7.07;;
2646;SDS011;1333;50.958;6.770;2024-03-22T05:05:28;8.83;;;6.67;;
2646;SDS011;1333;50.958;6.770;2024-03-22T05:07:54;9.43;;;6.80;;
2646;SDS011;1333;50.958;6.770;2024-03-22T05:10:19;10.00;;;6.53;;
2646;SDS011;1333;50.958;6.770;2024-03-22T05:12:45;16.47;;;10.17;;
2646;SDS011;1333;50.958;6.770;2024-03-22T05:15:10;11.87;;;8.23;;
2646;SDS011;1333;50.958;6.770;2024-03-22T05:17:36;20.07;;;8.17;;
2646;SDS011;1333;50.958;6.770;2024-03-22T05:20:01;12.80;;;8.47;;
2646;SDS011;1333;50.958;6.770;2024-03-22T05:22:27;12.37;;;8.20;;
2646;SDS011;1333;50.958;6.770;2024-03-22T05:24:53;13.17;;;8.60;;
2646;SDS011;1333;50.958;6.770;2024-03-22T05:27:19;14.23;;;8.63;;
2646;SDS011;1333;50.958;6.770;2024-03-22T05:29:44;26.40;;;10.13;;
2646;SDS011;1333;50.958;6.770;2024-03-22T05:32:10;15.07;;;9.80;;
2646;SDS011;1333;50.958;6.770;2024-03-22T05:34:35;12.10;;;8.73;;
2646;SDS011;1333;50.958;6.770;2024-03-22T05:37:01;17.80;;;9.77;;
2646;SDS011;1333;50.958;6.770;2024-03-22T05:39:27;14.77;;;9.70;;
2646;SDS011;1333;50.958;6.770;2024-03-22T05:41:53;15.27;;;10.20;;
2646;SDS011;1333;50.958;6.770;2024-03-22T05:44:19;19.30;;;10.47;;
2646;SDS011;1333;50.958;6.770;2024-03-22T05:46:46;19.97;;;11.63;;
2646;SDS011;1333;50.958;6.770;2024-03-22T05:49:12;18.10;;;11.50;;
2646;SDS011;1333;50.958;6.770;2024-03-22T05:51:37;19.73;;;12.23;;
2646;SDS011;1333;50.958;6.770;2024-03-22T05:54:03;17.73;;;12.00;;
2646;SDS011;1333;50.958;6.770;2024-03-22T05:56:28;21.97;;;13.10;;
2646;SDS011;1333;50.958;6.770;2024-03-22T05:58:54;16.83;;;11.30;;
2646;SDS011;1333;50.958;6.770;2024-03-22T06:01:19;17.50;;;10.90;;
2646;SDS011;1333;50.958;6.770;2024-03-22T06:03:45;22.30;;;12.43;;
2646;SDS011;1333;50.958;6.770;2024-03-22T06:06:10;19.00;;;12.37;;
2646;SDS011;1333;50.958;6.770;2024-03-22T06:08:37;16.43;;;10.40;;
2646;SDS011;1333;50.958;6.770;2024-03-22T06:11:04;21.00;;;13.30;;
2646;SDS011;1333;50.958;6.770;2024-03-22T06:13:31;15.60;;;11.00;;
2646;SDS011;1333;50.958;6.770;2024-03-22T06:15:57;20.30;;;11.80;;
2646;SDS011;1333;50.958;6.770;2024-03-22T06:18:22;20.40;;;12.20;;
2646;SDS011;1333;50.958;6.770;2024-03-22T06:20:48;22.10;;;13.20;;
2646;SDS011;1333;50.958;6.770;2024-03-22T06:23:13;16.07;;;11.50;;
2646;SDS011;1333;50.958;6.770;2024-03-22T06:25:39;18.43;;;12.60;;
2646;SDS011;1333;50.958;6.770;2024-03-22T06:28:04;19.10;;;12.67;;
2646;SDS011;1333;50.958;6.770;2024-03-22T06:30:30;19.30;;;11.97;;
2646;SDS011;1333;50.958;6.770;2024-03-22T06:32:55;16.03;;;12.00;;
2646;SDS011;1333;50.958;6.770;2024-03-22T06:35:21;18.43;;;11.87;;
2646;SDS011;1333;50.958;6.770;2024-03-22T06:37:47;15.73;;;11.00;;
2646;SDS011;1333;50.958;6.770;2024-03-22T06:40:13;19.97;;;13.23;;
2646;SDS011;1333;50.958;6.770;2024-03-22T06:42:39;18.30;;;12.77;;
2646;SDS011;1333;50.958;6.770;2024-03-22T06:45:05;16.90;;;10.87;;
2646;SDS011;1333;50.958;6.770;2024-03-22T06:47:34;20.23;;;11.60;;
2646;SDS011;1333;50.958;6.770;2024-03-22T06:49:59;24.60;;;12.87;;
2646;SDS011;1333;50.958;6.770;2024-03-22T06:52:25;29.83;;;14.17;;
2646;SDS011;1333;50.958;6.770;2024-03-22T06:54:50;17.30;;;11.80;;
2646;SDS011;1333;50.958;6.770;2024-03-22T06:57:17;13.60;;;11.00;;
2646;SDS011;1333;50.958;6.770;2024-03-22T06:59:42;18.13;;;13.57;;
2646;SDS011;1333;50.958;6.770;2024-03-22T07:02:08;24.00;;;15.70;;
2646;SDS011;1333;50.958;6.770;2024-03-22T07:04:34;27.07;;;17.40;;
2646;SDS011;1333;50.958;6.770;2024-03-22T07:07:00;25.63;;;14.60;;
2646;SDS011;1333;50.958;6.770;2024-03-22T07:09:25;23.93;;;13.13;;
2646;SDS011;1333;50.958;6.770;2024-03-22T07:11:53;18.83;;;13.80;;
2646;SDS011;1333;50.958;6.770;2024-03-22T07:14:19;20.20;;;13.80;;
2646;SDS011;1333;50.958;6.770;2024-03-22T07:16:44;22.20;;;11.63;;
2646;SDS011;1333;50.958;6.770;2024-03-22T07:19:10;27.47;;;14.77;;
2646;SDS011;1333;50.958;6.770;2024-03-22T07:21:36;23.90;;;14.00;;
2646;SDS011;1333;50.958;6.770;2024-03-22T07:24:01;20.20;;;13.10;;
2646;SDS011;1333;50.958;6.770;2024-03-22T07:26:28;19.80;;;11.13;;
2646;SDS011;1333;50.958;6.770;2024-03-22T07:28:53;16.50;;;10.90;;
2646;SDS011;1333;50.958;6.770;2024-03-22T07:31:19;17.93;;;10.90;;
2646;SDS011;1333;50.958;6.770;2024-03-22T07:33:44;12.70;;;9.60;;
2646;SDS011;1333;50.958;6.770;2024-03-22T07:36:10;15.40;;;9.70;;
2646;SDS011;1333;50.958;6.770;2024-03-22T07:38:35;12.50;;;8.77;;
2646;SDS011;1333;50.958;6.770;2024-03-22T07:41:03;12.97;;;8.57;;
2646;SDS011;1333;50.958;6.770;2024-03-22T07:43:29;11.40;;;8.07;;
2646;SDS011;1333;50.958;6.770;2024-03-22T07:45:55;8.23;;;7.00;;
2646;SDS011;1333;50.958;6.770;2024-03-22T07:48:20;15.37;;;7.80;;
2646;SDS011;1333;50.958;6.770;2024-03-22T07:50:46;9.90;;;7.13;;
2646;SDS011;1333;50.958;6.770;2024-03-22T07:53:11;8.43;;;6.67;;
2646;SDS011;1333;50.958;6.770;2024-03-22T07:55:38;8.53;;;7.07;;
2646;SDS011;1333;50.958;6.770;2024-03-22T07:58:04;11.23;;;7.23;;
2646;SDS011;1333;50.958;6.770;2024-03-22T08:00:31;11.27;;;6.57;;
2646;SDS011;1333;50.958;6.770;2024-03-22T08:02:56;6.80;;;5.30;;
2646;SDS011;1333;50.958;6.770;2024-03-22T08:05:22;10.97;;;6.90;;
2646;SDS011;1333;50.958;6.770;2024-03-22T08:07:47;10.63;;;6.40;;
2646;SDS011;1333;50.958;6.770;2024-03-22T08:10:13;9.10;;;6.33;;
2646;SDS011;1333;50.958;6.770;2024-03-22T08:12:40;9.13;;;7.00;;
2646;SDS011;1333;50.958;6.770;2024-03-22T08:15:06;9.67;;;7.13;;
2646;SDS011;1333;50.958;6.770;2024-03-22T08:17:32;9.70;;;5.93;;
2646;SDS011;1333;50.958;6.770;2024-03-22T08:19:57;9.63;;;6.90;;
2646;SDS011;1333;50.958;6.770;2024-03-22T08:22:23;12.03;;;7.60;;
2646;SDS011;1333;50.958;6.770;2024-03-22T08:24:48;7.70;;;5.80;;
2646;SDS011;1333;50.958;6.770;2024-03-22T08:27:14;12.40;;;6.73;;
2646;SDS011;1333;50.958;6.770;2024-03-22T08:29:39;8.10;;;6.23;;
2646;SDS011;1333;50.958;6.770;2024-03-22T08:32:05;11.87;;;7.00;;
2646;SDS011;1333;50.958;6.770;2024-03-22T08:34:31;8.33;;;6.40;;
2646;SDS011;1333;50.958;6.770;2024-03-22T08:36:57;10.10;;;7.57;;
2646;SDS011;1333;50.958;6.770;2024-03-22T08:39:23;9.90;;;6.17;;
2646;SDS011;1333;50.958;6.770;2024-03-22T08:41:49;15.20;;;5.80;;
2646;SDS011;1333;50.958;6.770;2024-03-22T08:44:14;10.27;;;6.47;;
2646;SDS011;1333;50.958;6.770;2024-03-22T08:46:40;8.10;;;6.53;;
2646;SDS011;1333;50.958;6.770;2024-03-22T08:49:06;9.63;;;5.83;;
2646;SDS011;1333;50.958;6.770;2024-03-22T08:51:31;8.77;;;6.13;;
2646;SDS011;1333;50.958;6.770;2024-03-22T08:53:57;9.00;;;5.40;;
2646;SDS011;1333;50.958;6.770;2024-03-22T08:56:22;9.33;;;5.20;;
2646;SDS011;1333;50.958;6.770;2024-03-22T08:58:48;8.80;;;5.93;;
2646;SDS011;1333;50.958;6.770;2024-03-22T09:01:14;7.00;;;5.70;;
2646;SDS011;1333;50.958;6.770;2024-03-22T09:03:40;13.10;;;7.37;;
2646;SDS011;1333;50.958;6.770;2024-03-22T09:06:05;11.90;;;6.67;;
2646;SDS011;1333;50.958;6.770;2024-03-22T09:08:31;11.57;;;7.30;;
2646;SDS011;1333;50.958;6.770;2024-03-22T09:10:58;9.50;;;6.80;;
2646;SDS011;1333;50.958;6.770;2024-03-22T09:13:24;8.33;;;5.40;;
2646;SDS011;1333;50.958;6.770;2024-03-22T09:15:55;7.90;;;5.70;;
2646;SDS011;1333;50.958;6.770;2024-03-22T09:18:22;7.37;;;4.63;;
2646;SDS011;1333;50.958;6.770;2024-03-22T09:20:48;5.23;;;4.70;;
2646;SDS011;1333;50.958;6.770;2024-03-22T09:23:13;5.33;;;4.73;;
2646;SDS011;1333;50.958;6.770;2024-03-22T09:25:39;8.00;;;5.20;;
2646;SDS011;1333;50.958;6.770;2024-03-22T09:28:04;4.53;;;4.13;;
2646;SDS011;1333;50.958;6.770;2024-03-22T09:30:30;7.20;;;5.13;;
2646;SDS011;1333;50.958;6.770;2024-03-22T09:32:55;5.17;;;4.67;;
2646;SDS011;1333;50.958;6.770;2024-03-22T09:35:21;5.50;;;4.50;;
2646;SDS011;1333;50.958;6.770;2024-03-22T09:37:46;7.00;;;5.40;;
2646;SDS011;1333;50.958;6.770;2024-03-22T09:40:12;13.63;;;4.57;;
2646;SDS011;1333;50.958;6.770;2024-03-22T09:42:38;7.73;;;5.20;;
2646;SDS011;1333;50.958;6.770;2024-03-22T09:45:07;6.43;;;4.80;;
2646;SDS011;1333;50.958;6.770;2024-03-22T09:47:33;10.67;;;4.93;;
2646;SDS011;1333;50.958;6.770;2024-03-22T09:49:59;7.37;;;5.43;;
2646;SDS011;1333;50.958;6.770;2024-03-22T09:52:26;9.00;;;5.60;;
2646;SDS011;1333;50.958;6.770;2024-03-22T09:54:53;7.03;;;5.40;;
2646;SDS011;1333;50.958;6.770;2024-03-22T09:57:18;7.83;;;5.17;;
2646;SDS011;1333;50.958;6.770;2024-03-22T09:59:46;5.37;;;4.50;;
2646;SDS011;1333;50.958;6.770;2024-03-22T10:02:12;6.13;;;5.10;;
2646;SDS011;1333;50.958;6.770;2024-03-22T10:04:41;6.50;;;4.87;;
2646;SDS011;1333;50.958;6.770;2024-03-22T10:07:07;5.53;;;4.90;;
2646;SDS011;1333;50.958;6.770;2024-03-22T10:09:35;10.53;;;5.37;;
2646;SDS011;1333;50.958;6.770;2024-03-22T10:12:01;9.23;;;5.37;;
2646;SDS011;1333;50.958;6.770;2024-03-22T10:14:26;7.10;;;4.73;;
2646;SDS011;1333;50.958;6.770;2024-03-22T10:16:55;6.63;;;4.47;;
2646;SDS011;1333;50.958;6.770;2024-03-22T10:19:20;6.93;;;5.67;;
2646;SDS011;1333;50.958;6.770;2024-03-22T10:22:08;8.40;;;5.93;;
2646;SDS011;1333;50.958;6.770;2024-03-22T10:24:32;7.60;;;4.23;;
2646;SDS011;1333;50.958;6.770;2024-03-22T10:26:58;10.70;;;5.37;;
2646;SDS011;1333;50.958;6.770;2024-03-22T10:29:24;5.90;;;5.30;;
2646;SDS011;1333;50.958;6.770;2024-03-22T10:31:50;7.97;;;5.00;;
2646;SDS011;1333;50.958;6.770;2024-03-22T10:34:17;7.50;;;5.83;;
2646;SDS011;1333;50.958;6.770;2024-03-22T10:36:43;9.20;;;5.60;;
2646;SDS011;1333;50.958;6.770;2024-03-22T10:39:10;8.83;;;5.47;;
2646;SDS011;1333;50.958;6.770;2024-03-22T10:41:40;9.30;;;5.30;;
2646;SDS011;1333;50.958;6.770;2024-03-22T10:44:05;6.03;;;5.40;;
2646;SDS011;1333;50.958;6.770;2024-03-22T10:46:33;6.27;;;5.40;;
2646;SDS011;1333;50.958;6.770;2024-03-22T10:49:00;6.30;;;5.10;;
2646;SDS011;1333;50.958;6.770;2024-03-22T10:51:29;9.80;;;6.33;;
2646;SDS011;1333;50.958;6.770;2024-03-22T10:53:56;7.63;;;5.50;;
2646;SDS011;1333;50.958;6.770;2024-03-22T10:56:23;10.50;;;5.90;;
2646;SDS011;1333;50.958;6.770;2024-03-22T10:58:50;7.60;;;4.87;;
2646;SDS011;1333;50.958;6.770;2024-03-22T11:01:24;19.60;;;11.93;;
2646;SDS011;1333;50.958;6.770;2024-03-22T11:03:50;7.90;;;7.10;;
2646;SDS011;1333;50.958;6.770;2024-03-22T11:06:19;9.00;;;6.97;;
2646;SDS011;1333;50.958;6.770;2024-03-22T11:08:49;9.40;;;6.73;;
2646;SDS011;1333;50.958;6.770;2024-03-22T11:11:17;11.90;;;6.97;;
2646;SDS011;1333;50.958;6.770;2024-03-22T11:13:46;10.57;;;7.50;;
2646;SDS011;1333;50.958;6.770;2024-03-22T11:16:12;19.13;;;8.10;;
2646;SDS011;1333;50.958;6.770;2024-03-22T11:18:39;10.30;;;7.10;;
2646;SDS011;1333;50.958;6.770;2024-03-22T11:21:04;12.00;;;7.90;;
2646;SDS011;1333;50.958;6.770;2024-03-22T11:23:33;9.67;;;8.10;;
2646;SDS011;1333;50.958;6.770;2024-03-22T11:26:01;9.50;;;6.67;;
2646;SDS011;1333;50.958;6.770;2024-03-22T11:28:26;11.90;;;7.60;;
2646;SDS011;1333;50.958;6.770;2024-03-22T11:30:52;11.40;;;8.30;;
2646;SDS011;1333;50.958;6.770;2024-03-22T11:33:18;10.67;;;6.40;;
2646;SDS011;1333;50.958;6.770;2024-03-22T11:35:43;8.03;;;6.93;;
2646;SDS011;1333;50.958;6.770;2024-03-22T11:38:09;11.13;;;8.20;;
2646;SDS011;1333;50.958;6.770;2024-03-22T11:40:35;9.70;;;8.10;;
2646;SDS011;1333;50.958;6.770;2024-03-22T11:43:01;11.27;;;8.70;;
2646;SDS011;1333;50.958;6.770;2024-03-22T11:45:27;11.63;;;8.53;;
2646;SDS011;1333;50.958;6.770;2024-03-22T11:47:53;12.90;;;8.07;;
2646;SDS011;1333;50.958;6.770;2024-03-22T11:50:19;18.53;;;7.73;;
2646;SDS011;1333;50.958;6.770;2024-03-22T11:52:44;14.80;;;8.40;;
2646;SDS011;1333;50.958;6.770;2024-03-22T11:55:13;13.13;;;8.23;;
2646;SDS011;1333;50.958;6.770;2024-03-22T11:57:39;15.30;;;9.60;;
2646;SDS011;1333;50.958;6.770;2024-03-22T12:00:05;12.53;;;8.80;;
2646;SDS011;1333;50.958;6.770;2024-03-22T12:02:34;12.00;;;8.93;;
2646;SDS011;1333;50.958;6.770;2024-03-22T12:05:01;14.93;;;9.00;;
2646;SDS011;1333;50.958;6.770;2024-03-22T12:07:28;10.30;;;7.97;;
2646;SDS011;1333;50.958;6.770;2024-03-22T12:09:53;12.53;;;7.93;;
2646;SDS011;1333;50.958;6.770;2024-03-22T12:12:20;13.00;;;9.03;;
2646;SDS011;1333;50.958;6.770;2024-03-22T12:14:47;12.77;;;8.30;;
2646;SDS011;1333;50.958;6.770;2024-03-22T12:17:12;12.67;;;7.97;;
2646;SDS011;1333;50.958;6.770;2024-03-22T12:19:38;11.63;;;7.87;;
2646;SDS011;1333;50.958;6.770;2024-03-22T12:22:03;10.67;;;8.50;;
2646;SDS011;1333;50.958;6.770;2024-03-22T12:24:31;14.10;;;9.20;;
2646;SDS011;1333;50.958;6.770;2024-03-22T12:26:57;10.63;;;7.40;;
2646;SDS011;1333;50.958;6.770;2024-03-22T12:29:22;14.33;;;8.00;;
2646;SDS011;1333;50.958;6.770;2024-03-22T12:31:48;11.33;;;8.00;;
2646;SDS011;1333;50.958;6.770;2024-03-22T12:34:14;10.87;;;7.13;;
2646;SDS011;1333;50.958;6.770;2024-03-22T12:36:40;10.17;;;7.53;;
2646;SDS011;1333;50.958;6.770;2024-03-22T12:39:05;11.10;;;7.60;;
2646;SDS011;1333;50.958;6.770;2024-03-22T12:41:31;10.87;;;8.70;;
2646;SDS011;1333;50.958;6.770;2024-03-22T12:43:58;10.83;;;8.73;;
2646;SDS011;1333;50.958;6.770;2024-03-22T12:46:24;11.33;;;8.60;;
2646;SDS011;1333;50.958;6.770;2024-03-22T12:48:50;18.10;;;8.60;;
2646;SDS011;1333;50.958;6.770;2024-03-22T12:51:15;11.40;;;7.87;;
2646;SDS011;1333;50.958;6.770;2024-03-22T12:53:41;11.30;;;9.13;;
2646;SDS011;1333;50.958;6.770;2024-03-22T12:56:07;9.00;;;7.43;;
2646;SDS011;1333;50.958;6.770;2024-03-22T12:58:32;10.67;;;7.93;;
2646;SDS011;1333;50.958;6.770;2024-03-22T13:00:58;12.90;;;8.90;;
2646;SDS011;1333;50.958;6.770;2024-03-22T13:03:26;10.33;;;8.37;;
2646;SDS011;1333;50.958;6.770;2024-03-22T13:05:51;7.87;;;7.07;;
2646;SDS011;1333;50.958;6.770;2024-03-22T13:08:17;13.00;;;9.00;;
2646;SDS011;1333;50.958;6.770;2024-03-22T13:10:44;13.33;;;8.17;;
2646;SDS011;1333;50.958;6.770;2024-03-22T13:13:10;7.70;;;6.83;;
2646;SDS011;1333;50.958;6.770;2024-03-22T13:15:35;9.20;;;6.63;;
2646;SDS011;1333;50.958;6.770;2024-03-22T13:18:03;10.53;;;9.37;;
2646;SDS011;1333;50.958;6.770;2024-03-22T13:20:28;11.00;;;7.47;;
2646;SDS011;1333;50.958;6.770;2024-03-22T13:22:54;12.33;;;8.97;;
2646;SDS011;1333;50.958;6.770;2024-03-22T13:25:20;9.20;;;7.20;;
2646;SDS011;1333;50.958;6.770;2024-03-22T13:27:45;11.60;;;9.13;;
2646;SDS011;1333;50.958;6.770;2024-03-22T13:30:11;13.40;;;11.03;;
2646;SDS011;1333;50.958;6.770;2024-03-22T13:32:37;12.17;;;8.00;;
2646;SDS011;1333;50.958;6.770;2024-03-22T13:35:04;6.20;;;5.60;;
2646;SDS011;1333;50.958;6.770;2024-03-22T13:37:30;14.40;;;8.33;;
2646;SDS011;1333;50.958;6.770;2024-03-22T13:39:56;9.47;;;7.60;;
2646;SDS011;1333;50.958;6.770;2024-03-22T13:42:22;8.13;;;7.07;;
2646;SDS011;1333;50.958;6.770;2024-03-22T13:44:48;7.17;;;5.90;;
2646;SDS011;1333;50.958;6.770;2024-03-22T13:47:13;12.13;;;10.40;;
2646;SDS011;1333;50.958;6.770;2024-03-22T13:49:39;10.23;;;7.53;;
2646;SDS011;1333;50.958;6.770;2024-03-22T13:52:06;14.33;;;11.17;;
2646;SDS011;1333;50.958;6.770;2024-03-22T13:54:32;10.23;;;8.63;;
2646;SDS011;1333;50.958;6.770;2024-03-22T13:56:58;8.60;;;7.07;;
2646;SDS011;1333;50.958;6.770;2024-03-22T13:59:23;7.60;;;5.47;;
2646;SDS011;1333;50.958;6.770;2024-03-22T14:01:49;9.80;;;7.13;;
2646;SDS011;1333;50.958;6.770;2024-03-22T14:04:14;9.70;;;6.90;;
2646;SDS011;1333;50.958;6.770;2024-03-22T14:06:40;8.20;;;6.97;;
2646;SDS011;1333;50.958;6.770;2024-03-22T14:09:07;9.40;;;6.70;;
2646;SDS011;1333;50.958;6.770;2024-03-22T14:11:35;10.37;;;5.97;;
2646;SDS011;1333;50.958;6.770;2024-03-22T14:14:01;6.83;;;5.57;;
2646;SDS011;1333;50.958;6.770;2024-03-22T14:16:27;6.63;;;5.43;;
2646;SDS011;1333;50.958;6.770;2024-03-22T14:18:53;7.00;;;5.40;;
2646;SDS011;1333;50.958;6.770;2024-03-22T14:21:18;6.83;;;6.13;;
2646;SDS011;1333;50.958;6.770;2024-03-22T14:23:48;9.80;;;5.33;;
2646;SDS011;1333;50.958;6.770;2024-03-22T14:26:15;5.93;;;5.30;;
2646;SDS011;1333;50.958;6.770;2024-03-22T14:28:41;6.57;;;5.30;;
2646;SDS011;1333;50.958;6.770;2024-03-22T14:31:07;9.60;;;5.60;;
2646;SDS011;1333;50.958;6.770;2024-03-22T14:33:34;6.77;;;4.60;;
2646;SDS011;1333;50.958;6.770;2024-03-22T14:36:00;6.40;;;5.20;;
2646;SDS011;1333;50.958;6.770;2024-03-22T14:38:26;8.67;;;6.30;;
2646;SDS011;1333;50.958;6.770;2024-03-22T14:40:52;10.30;;;7.10;;
2646;SDS011;1333;50.958;6.770;2024-03-22T14:43:19;9.90;;;6.90;;
2646;SDS011;1333;50.958;6.770;2024-03-22T14:45:45;6.93;;;5.37;;
2646;SDS011;1333;50.958;6.770;2024-03-22T14:48:11;9.20;;;7.57;;
2646;SDS011;1333;50.958;6.770;2024-03-22T14:50:36;9.47;;;6.40;;
2646;SDS011;1333;50.958;6.770;2024-03-22T14:53:04;9.93;;;7.00;;
2646;SDS011;1333;50.958;6.770;2024-03-22T14:55:30;10.93;;;6.13;;
2646;SDS011;1333;50.958;6.770;2024-03-22T14:57:56;7.77;;;6.10;;